createdAt,value
2022-09-30T00:00:14.000Z,994.2131760000001
2022-09-30T00:00:54.000Z,994.5179519999999
2022-09-30T00:01:20.000Z,994.5179519999999
2022-09-30T00:01:49.000Z,994.4163599999999
2022-09-30T00:02:25.000Z,994.4163599999999
2022-09-30T00:02:46.000Z,994.4163599999999
2022-09-30T00:03:09.000Z,994.4163599999999
2022-09-30T00:03:44.000Z,994.4163599999999
2022-09-30T00:04:14.000Z,994.314768
2022-09-30T00:04:45.000Z,994.314768
2022-09-30T00:05:20.000Z,994.314768
2022-09-30T00:05:50.000Z,994.4163599999999
2022-09-30T00:06:24.000Z,994.4163599999999
2022-09-30T00:06:46.000Z,994.4163599999999
2022-09-30T00:07:09.000Z,994.4163599999999
2022-09-30T00:07:54.000Z,994.5179519999999
2022-09-30T00:08:17.000Z,994.5179519999999
2022-09-30T00:08:44.000Z,994.5179519999999
2022-09-30T00:09:16.000Z,994.4163599999999
2022-09-30T00:09:44.000Z,994.4163599999999
2022-09-30T00:10:14.000Z,994.5179519999999
2022-09-30T00:10:39.000Z,994.5179519999999
2022-09-30T00:11:09.000Z,994.5179519999999
2022-09-30T00:11:45.000Z,994.5179519999999
2022-09-30T00:12:14.000Z,994.314768
2022-09-30T00:12:44.000Z,994.314768
2022-09-30T00:13:20.000Z,994.7211359999999
2022-09-30T00:13:49.000Z,994.5179519999999
2022-09-30T00:14:25.000Z,994.5179519999999
2022-09-30T00:14:46.000Z,994.314768
2022-09-30T00:15:09.000Z,994.314768
2022-09-30T00:15:45.000Z,994.314768
2022-09-30T00:16:14.000Z,994.314768
2022-09-30T00:16:44.000Z,994.314768
2022-09-30T00:17:19.000Z,994.4163599999999
2022-09-30T00:17:50.000Z,994.5179519999999
2022-09-30T00:18:25.000Z,994.5179519999999
2022-09-30T00:18:46.000Z,994.4163599999999
2022-09-30T00:19:10.000Z,994.4163599999999
2022-09-30T00:19:44.000Z,994.4163599999999
2022-09-30T00:20:14.000Z,994.5179519999999
2022-09-30T00:20:44.000Z,994.5179519999999
2022-09-30T00:21:20.000Z,994.5179519999999
2022-09-30T00:21:49.000Z,994.619544
2022-09-30T00:22:24.000Z,994.619544
2022-09-30T00:22:46.000Z,994.5179519999999
2022-09-30T00:23:09.000Z,994.5179519999999
2022-09-30T00:23:44.000Z,994.5179519999999
2022-09-30T00:24:12.000Z,994.7211359999999
2022-09-30T00:24:39.000Z,994.7211359999999
2022-09-30T00:25:13.000Z,994.7211359999999
2022-09-30T00:25:36.000Z,994.7211359999999
2022-09-30T00:26:04.000Z,994.619544
2022-09-30T00:26:36.000Z,994.619544
2022-09-30T00:27:04.000Z,994.5179519999999
2022-09-30T00:27:34.000Z,994.5179519999999
2022-09-30T00:28:00.000Z,994.7211359999999
2022-09-30T00:28:28.000Z,994.7211359999999
2022-09-30T00:28:54.000Z,994.822728
2022-09-30T00:29:19.000Z,994.822728
2022-09-30T00:29:49.000Z,994.822728
2022-09-30T00:30:25.000Z,994.822728
2022-09-30T00:30:46.000Z,994.5179519999999
2022-09-30T00:31:09.000Z,994.5179519999999
2022-09-30T00:31:44.000Z,994.5179519999999
2022-09-30T00:32:14.000Z,994.7211359999999
2022-09-30T00:32:45.000Z,994.7211359999999
2022-09-30T00:33:20.000Z,994.822728
2022-09-30T00:33:49.000Z,994.619544
2022-09-30T00:34:25.000Z,994.619544
2022-09-30T00:34:46.000Z,994.7211359999999
2022-09-30T00:35:09.000Z,994.7211359999999
2022-09-30T00:35:44.000Z,994.7211359999999
2022-09-30T00:36:14.000Z,994.7211359999999
2022-09-30T00:36:54.000Z,994.822728
2022-09-30T00:37:19.000Z,994.822728
2022-09-30T00:37:45.000Z,994.619544
2022-09-30T00:38:14.000Z,994.619544
2022-09-30T00:38:39.000Z,994.619544
2022-09-30T00:39:09.000Z,994.619544
2022-09-30T00:39:45.000Z,994.619544
2022-09-30T00:40:14.000Z,994.7211359999999
2022-09-30T00:40:45.000Z,994.7211359999999
2022-09-30T00:41:19.000Z,994.619544
2022-09-30T00:41:49.000Z,994.7211359999999
2022-09-30T00:42:24.000Z,994.7211359999999
2022-09-30T00:42:46.000Z,994.5179519999999
2022-09-30T00:43:09.000Z,994.5179519999999
2022-09-30T00:43:44.000Z,994.5179519999999
2022-09-30T00:44:14.000Z,994.619544
2022-09-30T00:44:44.000Z,994.619544
2022-09-30T00:45:19.000Z,994.7211359999999
2022-09-30T00:45:49.000Z,994.7211359999999
2022-09-30T00:46:24.000Z,994.7211359999999
2022-09-30T00:46:46.000Z,994.619544
2022-09-30T00:47:09.000Z,994.619544
2022-09-30T00:47:44.000Z,994.619544
2022-09-30T00:48:14.000Z,994.619544
2022-09-30T00:48:44.000Z,994.619544
2022-09-30T00:49:20.000Z,994.619544
2022-09-30T00:49:49.000Z,994.7211359999999
2022-09-30T00:50:24.000Z,994.7211359999999
2022-09-30T00:50:47.000Z,994.619544
2022-09-30T00:51:09.000Z,994.619544
2022-09-30T00:51:54.000Z,994.5179519999999
2022-09-30T00:52:17.000Z,994.5179519999999
2022-09-30T00:52:44.000Z,994.5179519999999
2022-09-30T00:53:19.000Z,994.5179519999999
2022-09-30T00:53:45.000Z,994.619544
2022-09-30T00:54:14.000Z,994.619544
2022-09-30T00:54:40.000Z,994.619544
2022-09-30T00:55:08.000Z,994.7211359999999
2022-09-30T00:55:34.000Z,994.7211359999999
2022-09-30T00:56:00.000Z,994.619544
2022-09-30T00:56:28.000Z,994.619544
2022-09-30T00:56:54.000Z,994.7211359999999
2022-09-30T00:57:19.000Z,994.7211359999999
2022-09-30T00:57:45.000Z,994.4163599999999
2022-09-30T00:58:14.000Z,994.4163599999999
2022-09-30T00:58:41.000Z,994.4163599999999
2022-09-30T00:59:08.000Z,994.7211359999999
2022-09-30T00:59:34.000Z,994.7211359999999
2022-09-30T01:00:01.000Z,994.7211359999999
2022-09-30T01:00:28.000Z,994.7211359999999
2022-09-30T01:00:44.000Z,994.7211359999999
2022-09-30T01:01:21.000Z,994.619544
2022-09-30T01:01:49.000Z,994.619544
2022-09-30T01:02:24.000Z,994.619544
2022-09-30T01:02:46.000Z,994.5179519999999
2022-09-30T01:03:10.000Z,994.5179519999999
2022-09-30T01:03:45.000Z,994.5179519999999
2022-09-30T01:04:14.000Z,994.5179519999999
2022-09-30T01:04:44.000Z,994.5179519999999
2022-09-30T01:05:00.000Z,994.5179519999999
2022-09-30T01:05:19.000Z,994.5179519999999
2022-09-30T01:05:49.000Z,994.619544
2022-09-30T01:06:24.000Z,994.619544
2022-09-30T01:06:46.000Z,994.4163599999999
2022-09-30T01:07:10.000Z,994.4163599999999
2022-09-30T01:07:45.000Z,994.4163599999999
2022-09-30T01:08:14.000Z,994.619544
2022-09-30T01:08:44.000Z,994.619544
2022-09-30T01:09:20.000Z,994.7211359999999
2022-09-30T01:09:49.000Z,994.4163599999999
2022-09-30T01:10:25.000Z,994.4163599999999
2022-09-30T01:10:46.000Z,994.619544
2022-09-30T01:11:10.000Z,994.619544
2022-09-30T01:11:54.000Z,994.5179519999999
2022-09-30T01:12:15.000Z,994.5179519999999
2022-09-30T01:12:44.000Z,994.5179519999999
2022-09-30T01:13:19.000Z,994.4163599999999
2022-09-30T01:13:49.000Z,994.7211359999999
2022-09-30T01:14:24.000Z,994.7211359999999
2022-09-30T01:14:49.000Z,994.7211359999999
2022-09-30T01:15:12.000Z,994.7211359999999
2022-09-30T01:15:40.000Z,994.7211359999999
2022-09-30T01:15:56.000Z,994.5179519999999
2022-09-30T01:16:30.000Z,994.5179519999999
2022-09-30T01:17:04.000Z,994.619544
2022-09-30T01:17:34.000Z,994.619544
2022-09-30T01:18:04.000Z,994.619544
2022-09-30T01:18:39.000Z,994.619544
2022-09-30T01:19:10.000Z,994.5179519999999
2022-09-30T01:19:45.000Z,994.5179519999999
2022-09-30T01:20:15.000Z,994.619544
2022-09-30T01:20:44.000Z,994.619544
2022-09-30T01:21:20.000Z,994.5179519999999
2022-09-30T01:21:50.000Z,994.619544
2022-09-30T01:22:24.000Z,994.619544
2022-09-30T01:22:46.000Z,994.5179519999999
2022-09-30T01:23:09.000Z,994.5179519999999
2022-09-30T01:23:44.000Z,994.5179519999999
2022-09-30T01:24:14.000Z,994.5179519999999
2022-09-30T01:24:44.000Z,994.5179519999999
2022-09-30T01:25:19.000Z,994.7211359999999
2022-09-30T01:25:49.000Z,994.7211359999999
2022-09-30T01:26:26.000Z,994.7211359999999
2022-09-30T01:26:46.000Z,994.822728
2022-09-30T01:27:10.000Z,994.822728
2022-09-30T01:27:44.000Z,994.822728
2022-09-30T01:28:14.000Z,994.4163599999999
2022-09-30T01:28:54.000Z,994.619544
2022-09-30T01:29:19.000Z,994.619544
2022-09-30T01:29:49.000Z,994.7211359999999
2022-09-30T01:30:25.000Z,994.7211359999999
2022-09-30T01:30:46.000Z,994.7211359999999
2022-09-30T01:31:10.000Z,994.7211359999999
2022-09-30T01:31:44.000Z,994.7211359999999
2022-09-30T01:32:14.000Z,994.7211359999999
2022-09-30T01:32:44.000Z,994.7211359999999
2022-09-30T01:33:20.000Z,994.92432
2022-09-30T01:33:49.000Z,994.619544
2022-09-30T01:34:25.000Z,994.619544
2022-09-30T01:34:46.000Z,994.619544
2022-09-30T01:35:09.000Z,994.619544
2022-09-30T01:35:45.000Z,994.619544
2022-09-30T01:36:12.000Z,994.619544
2022-09-30T01:36:49.000Z,994.619544
2022-09-30T01:37:16.000Z,994.619544
2022-09-30T01:37:44.000Z,994.619544
2022-09-30T01:38:14.000Z,994.619544
2022-09-30T01:38:41.000Z,994.619544
2022-09-30T01:39:08.000Z,994.7211359999999
2022-09-30T01:39:34.000Z,994.7211359999999
2022-09-30T01:40:01.000Z,994.7211359999999
2022-09-30T01:40:28.000Z,994.7211359999999
2022-09-30T01:40:54.000Z,994.619544
2022-09-30T01:41:19.000Z,994.619544
2022-09-30T01:41:45.000Z,994.619544
2022-09-30T01:42:14.000Z,994.619544
2022-09-30T01:42:41.000Z,994.619544
2022-09-30T01:43:08.000Z,994.5179519999999
2022-09-30T01:43:44.000Z,994.5179519999999
2022-09-30T01:44:15.000Z,994.619544
2022-09-30T01:44:44.000Z,994.619544
2022-09-30T01:45:19.000Z,994.5179519999999
2022-09-30T01:45:49.000Z,994.5179519999999
2022-09-30T01:46:24.000Z,994.5179519999999
2022-09-30T01:46:46.000Z,994.7211359999999
2022-09-30T01:47:09.000Z,994.7211359999999
2022-09-30T01:47:45.000Z,994.7211359999999
2022-09-30T01:48:14.000Z,994.822728
2022-09-30T01:48:45.000Z,994.822728
2022-09-30T01:49:19.000Z,994.822728
2022-09-30T01:49:49.000Z,994.822728
2022-09-30T01:50:24.000Z,994.822728
2022-09-30T01:50:47.000Z,994.619544
2022-09-30T01:51:09.000Z,994.619544
2022-09-30T01:51:45.000Z,994.619544
2022-09-30T01:52:14.000Z,994.7211359999999
2022-09-30T01:52:44.000Z,994.7211359999999
2022-09-30T01:53:19.000Z,994.7211359999999
2022-09-30T01:53:49.000Z,994.822728
2022-09-30T01:54:25.000Z,994.822728
2022-09-30T01:54:46.000Z,994.7211359999999
2022-09-30T01:55:10.000Z,994.7211359999999
2022-09-30T01:55:44.000Z,994.7211359999999
2022-09-30T01:56:14.000Z,994.7211359999999
2022-09-30T01:56:44.000Z,994.7211359999999
2022-09-30T01:57:19.000Z,994.619544
2022-09-30T01:57:50.000Z,994.619544
2022-09-30T01:58:25.000Z,994.619544
2022-09-30T01:58:47.000Z,994.822728
2022-09-30T01:59:10.000Z,994.822728
2022-09-30T01:59:44.000Z,994.822728
2022-09-30T02:00:15.000Z,994.92432
2022-09-30T02:00:44.000Z,994.92432
2022-09-30T02:01:20.000Z,994.822728
2022-09-30T02:01:49.000Z,994.822728
2022-09-30T02:02:25.000Z,994.822728
2022-09-30T02:02:46.000Z,994.822728
2022-09-30T02:03:09.000Z,994.822728
2022-09-30T02:03:45.000Z,994.822728
2022-09-30T02:04:12.000Z,994.822728
2022-09-30T02:04:39.000Z,994.822728
2022-09-30T02:05:04.000Z,994.822728
2022-09-30T02:05:35.000Z,994.822728
2022-09-30T02:06:04.000Z,994.7211359999999
2022-09-30T02:06:24.000Z,994.7211359999999
2022-09-30T02:06:46.000Z,994.7211359999999
2022-09-30T02:07:10.000Z,994.7211359999999
2022-09-30T02:07:44.000Z,994.7211359999999
2022-09-30T02:08:14.000Z,995.0259120000001
2022-09-30T02:08:44.000Z,995.0259120000001
2022-09-30T02:09:00.000Z,994.7211359999999
2022-09-30T02:09:19.000Z,994.7211359999999
2022-09-30T02:09:49.000Z,994.822728
2022-09-30T02:10:25.000Z,994.822728
2022-09-30T02:10:46.000Z,994.7211359999999
2022-09-30T02:11:19.000Z,994.7211359999999
2022-09-30T02:11:44.000Z,994.7211359999999
2022-09-30T02:12:14.000Z,994.822728
2022-09-30T02:12:45.000Z,994.822728
2022-09-30T02:13:20.000Z,994.92432
2022-09-30T02:13:50.000Z,994.7211359999999
2022-09-30T02:14:25.000Z,994.7211359999999
2022-09-30T02:14:46.000Z,994.7211359999999
2022-09-30T02:15:09.000Z,994.7211359999999
2022-09-30T02:15:44.000Z,994.7211359999999
2022-09-30T02:16:14.000Z,994.822728
2022-09-30T02:16:45.000Z,994.822728
2022-09-30T02:17:20.000Z,994.822728
2022-09-30T02:17:49.000Z,994.619544
2022-09-30T02:18:25.000Z,994.619544
2022-09-30T02:18:46.000Z,994.822728
2022-09-30T02:19:09.000Z,994.822728
2022-09-30T02:19:45.000Z,994.822728
2022-09-30T02:20:14.000Z,994.619544
2022-09-30T02:20:44.000Z,994.619544
2022-09-30T02:21:00.000Z,994.619544
2022-09-30T02:21:20.000Z,994.619544
2022-09-30T02:21:49.000Z,994.822728
2022-09-30T02:22:24.000Z,994.822728
2022-09-30T02:22:46.000Z,994.822728
2022-09-30T02:23:09.000Z,994.822728
2022-09-30T02:23:44.000Z,994.822728
2022-09-30T02:24:15.000Z,994.7211359999999
2022-09-30T02:24:44.000Z,994.7211359999999
2022-09-30T02:25:09.000Z,994.822728
2022-09-30T02:25:36.000Z,994.822728
2022-09-30T02:25:59.000Z,994.7211359999999
2022-09-30T02:26:24.000Z,994.7211359999999
2022-09-30T02:26:49.000Z,994.92432
2022-09-30T02:27:12.000Z,994.92432
2022-09-30T02:27:40.000Z,994.92432
2022-09-30T02:28:05.000Z,994.822728
2022-09-30T02:28:30.000Z,994.822728
2022-09-30T02:28:54.000Z,994.92432
2022-09-30T02:29:19.000Z,994.92432
2022-09-30T02:29:45.000Z,994.822728
2022-09-30T02:30:14.000Z,994.822728
2022-09-30T02:30:41.000Z,994.822728
2022-09-30T02:31:08.000Z,994.619544
2022-09-30T02:31:34.000Z,994.619544
2022-09-30T02:32:00.000Z,994.822728
2022-09-30T02:32:28.000Z,994.822728
2022-09-30T02:32:54.000Z,994.7211359999999
2022-09-30T02:33:19.000Z,994.7211359999999
2022-09-30T02:33:45.000Z,994.822728
2022-09-30T02:34:14.000Z,994.822728
2022-09-30T02:34:40.000Z,994.822728
2022-09-30T02:35:09.000Z,994.7211359999999
2022-09-30T02:35:45.000Z,994.7211359999999
2022-09-30T02:36:14.000Z,994.822728
2022-09-30T02:36:44.000Z,994.822728
2022-09-30T02:37:00.000Z,994.822728
2022-09-30T02:37:34.000Z,994.822728
2022-09-30T02:38:05.000Z,994.619544
2022-09-30T02:38:39.000Z,994.619544
2022-09-30T02:39:09.000Z,994.822728
2022-09-30T02:39:44.000Z,994.822728
2022-09-30T02:40:14.000Z,995.0259120000001
2022-09-30T02:40:46.000Z,995.0259120000001
2022-09-30T02:41:19.000Z,994.92432
2022-09-30T02:41:49.000Z,994.92432
2022-09-30T02:42:25.000Z,994.92432
2022-09-30T02:42:46.000Z,994.822728
2022-09-30T02:43:09.000Z,994.822728
2022-09-30T02:43:44.000Z,994.822728
2022-09-30T02:44:14.000Z,994.822728
2022-09-30T02:44:45.000Z,994.822728
2022-09-30T02:45:20.000Z,994.7211359999999
2022-09-30T02:45:49.000Z,994.92432
2022-09-30T02:46:26.000Z,994.92432
2022-09-30T02:46:46.000Z,994.822728
2022-09-30T02:47:19.000Z,994.822728
2022-09-30T02:47:45.000Z,994.822728
2022-09-30T02:48:12.000Z,994.7211359999999
2022-09-30T02:48:39.000Z,994.7211359999999
2022-09-30T02:49:13.000Z,994.92432
2022-09-30T02:49:34.000Z,994.92432
2022-09-30T02:50:04.000Z,994.822728
2022-09-30T02:50:39.000Z,994.822728
2022-09-30T02:51:09.000Z,995.0259120000001
2022-09-30T02:51:44.000Z,995.0259120000001
2022-09-30T02:52:14.000Z,994.822728
2022-09-30T02:52:44.000Z,994.822728
2022-09-30T02:53:20.000Z,995.0259120000001
2022-09-30T02:53:50.000Z,994.822728
2022-09-30T02:54:25.000Z,994.822728
2022-09-30T02:54:46.000Z,994.822728
2022-09-30T02:55:10.000Z,994.822728
2022-09-30T02:55:45.000Z,994.822728
2022-09-30T02:56:24.000Z,994.92432
2022-09-30T02:56:54.000Z,994.92432
2022-09-30T02:57:19.000Z,994.92432
2022-09-30T02:57:45.000Z,994.822728
2022-09-30T02:58:14.000Z,994.822728
2022-09-30T02:58:41.000Z,994.822728
2022-09-30T02:59:09.000Z,995.0259120000001
2022-09-30T02:59:45.000Z,995.0259120000001
2022-09-30T03:00:14.000Z,994.92432
2022-09-30T03:00:45.000Z,994.92432
2022-09-30T03:01:20.000Z,994.92432
2022-09-30T03:01:49.000Z,994.822728
2022-09-30T03:02:24.000Z,994.822728
2022-09-30T03:02:46.000Z,994.92432
2022-09-30T03:03:09.000Z,994.92432
2022-09-30T03:03:45.000Z,994.92432
2022-09-30T03:04:14.000Z,994.822728
2022-09-30T03:04:44.000Z,994.822728
2022-09-30T03:05:19.000Z,995.0259120000001
2022-09-30T03:05:50.000Z,994.822728
2022-09-30T03:06:25.000Z,994.822728
2022-09-30T03:06:46.000Z,994.92432
2022-09-30T03:07:09.000Z,994.92432
2022-09-30T03:07:45.000Z,994.92432
2022-09-30T03:08:15.000Z,994.822728
2022-09-30T03:08:44.000Z,994.822728
2022-09-30T03:09:20.000Z,995.0259120000001
2022-09-30T03:09:45.000Z,995.229096
2022-09-30T03:10:04.000Z,995.229096
2022-09-30T03:10:39.000Z,995.229096
2022-09-30T03:11:09.000Z,994.92432
2022-09-30T03:11:44.000Z,994.92432
2022-09-30T03:12:16.000Z,994.92432
2022-09-30T03:12:49.000Z,994.92432
2022-09-30T03:13:16.000Z,995.0259120000001
2022-09-30T03:13:44.000Z,995.0259120000001
2022-09-30T03:14:14.000Z,994.7211359999999
2022-09-30T03:14:41.000Z,994.7211359999999
2022-09-30T03:15:08.000Z,995.1275039999999
2022-09-30T03:15:44.000Z,995.1275039999999
2022-09-30T03:16:24.000Z,994.822728
2022-09-30T03:16:54.000Z,995.0259120000001
2022-09-30T03:17:19.000Z,995.0259120000001
2022-09-30T03:17:45.000Z,994.822728
2022-09-30T03:18:04.000Z,994.822728
2022-09-30T03:18:39.000Z,994.822728
2022-09-30T03:19:09.000Z,995.1275039999999
2022-09-30T03:19:45.000Z,995.1275039999999
2022-09-30T03:20:14.000Z,994.92432
2022-09-30T03:20:44.000Z,994.92432
2022-09-30T03:21:20.000Z,995.0259120000001
2022-09-30T03:21:49.000Z,995.229096
2022-09-30T03:22:24.000Z,995.229096
2022-09-30T03:22:46.000Z,995.1275039999999
2022-09-30T03:23:09.000Z,995.1275039999999
2022-09-30T03:23:45.000Z,995.1275039999999
2022-09-30T03:24:24.000Z,995.1275039999999
2022-09-30T03:24:54.000Z,995.0259120000001
2022-09-30T03:25:19.000Z,995.0259120000001
2022-09-30T03:25:45.000Z,995.0259120000001
2022-09-30T03:26:14.000Z,995.0259120000001
2022-09-30T03:26:39.000Z,995.0259120000001
2022-09-30T03:27:09.000Z,995.1275039999999
2022-09-30T03:27:44.000Z,995.1275039999999
2022-09-30T03:28:15.000Z,995.0259120000001
2022-09-30T03:28:44.000Z,995.0259120000001
2022-09-30T03:29:19.000Z,995.229096
2022-09-30T03:29:50.000Z,995.0259120000001
2022-09-30T03:30:24.000Z,995.0259120000001
2022-09-30T03:30:46.000Z,995.1275039999999
2022-09-30T03:31:09.000Z,995.1275039999999
2022-09-30T03:31:44.000Z,995.1275039999999
2022-09-30T03:32:14.000Z,995.1275039999999
2022-09-30T03:32:54.000Z,995.229096
2022-09-30T03:33:19.000Z,995.229096
2022-09-30T03:33:45.000Z,995.229096
2022-09-30T03:34:05.000Z,995.229096
2022-09-30T03:34:41.000Z,995.229096
2022-09-30T03:35:09.000Z,995.229096
2022-09-30T03:35:45.000Z,995.229096
2022-09-30T03:36:14.000Z,995.1275039999999
2022-09-30T03:36:44.000Z,995.1275039999999
2022-09-30T03:37:20.000Z,995.330688
2022-09-30T03:37:49.000Z,995.1275039999999
2022-09-30T03:38:24.000Z,995.1275039999999
2022-09-30T03:38:46.000Z,995.0259120000001
2022-09-30T03:39:10.000Z,995.0259120000001
2022-09-30T03:39:44.000Z,995.0259120000001
2022-09-30T03:40:14.000Z,995.1275039999999
2022-09-30T03:40:46.000Z,995.1275039999999
2022-09-30T03:41:19.000Z,995.229096
2022-09-30T03:41:49.000Z,995.330688
2022-09-30T03:42:25.000Z,995.330688
2022-09-30T03:42:46.000Z,994.92432
2022-09-30T03:43:09.000Z,994.92432
2022-09-30T03:43:44.000Z,994.92432
2022-09-30T03:44:14.000Z,995.1275039999999
2022-09-30T03:44:45.000Z,995.1275039999999
2022-09-30T03:45:20.000Z,995.1275039999999
2022-09-30T03:45:49.000Z,995.0259120000001
2022-09-30T03:46:25.000Z,995.0259120000001
2022-09-30T03:46:46.000Z,995.1275039999999
2022-09-30T03:47:09.000Z,995.1275039999999
2022-09-30T03:47:44.000Z,995.1275039999999
2022-09-30T03:48:12.000Z,995.0259120000001
2022-09-30T03:48:30.000Z,995.0259120000001
2022-09-30T03:49:05.000Z,995.1275039999999
2022-09-30T03:49:34.000Z,995.1275039999999
2022-09-30T03:49:50.000Z,995.229096
2022-09-30T03:50:25.000Z,995.229096
2022-09-30T03:50:46.000Z,995.229096
2022-09-30T03:51:09.000Z,995.229096
2022-09-30T03:51:45.000Z,995.229096
2022-09-30T03:52:15.000Z,995.1275039999999
2022-09-30T03:52:44.000Z,995.1275039999999
2022-09-30T03:53:00.000Z,995.330688
2022-09-30T03:53:20.000Z,995.330688
2022-09-30T03:53:49.000Z,995.330688
2022-09-30T03:54:25.000Z,995.330688
2022-09-30T03:54:49.000Z,995.1275039999999
2022-09-30T03:55:12.000Z,995.1275039999999
2022-09-30T03:55:40.000Z,995.1275039999999
2022-09-30T03:56:06.000Z,995.229096
2022-09-30T03:56:31.000Z,995.229096
2022-09-30T03:56:54.000Z,995.330688
2022-09-30T03:57:19.000Z,995.330688
2022-09-30T03:57:45.000Z,995.229096
2022-09-30T03:58:14.000Z,995.229096
2022-09-30T03:58:40.000Z,995.229096
2022-09-30T03:59:09.000Z,995.229096
2022-09-30T03:59:45.000Z,995.229096
2022-09-30T04:00:14.000Z,994.92432
2022-09-30T04:00:44.000Z,994.92432
2022-09-30T04:01:19.000Z,995.330688
2022-09-30T04:01:49.000Z,995.1275039999999
2022-09-30T04:02:24.000Z,995.1275039999999
2022-09-30T04:02:46.000Z,995.330688
2022-09-30T04:03:09.000Z,995.330688
2022-09-30T04:03:45.000Z,995.330688
2022-09-30T04:04:14.000Z,995.330688
2022-09-30T04:04:44.000Z,995.330688
2022-09-30T04:05:19.000Z,995.229096
2022-09-30T04:05:59.000Z,995.1275039999999
2022-09-30T04:06:24.000Z,995.1275039999999
2022-09-30T04:06:49.000Z,995.330688
2022-09-30T04:07:12.000Z,995.330688
2022-09-30T04:07:40.000Z,995.330688
2022-09-30T04:08:06.000Z,995.330688
2022-09-30T04:08:31.000Z,995.330688
2022-09-30T04:08:59.000Z,995.229096
2022-09-30T04:09:22.000Z,995.229096
2022-09-30T04:09:49.000Z,995.330688
2022-09-30T04:10:25.000Z,995.330688
2022-09-30T04:10:47.000Z,995.43228
2022-09-30T04:11:08.000Z,995.43228
2022-09-30T04:11:34.000Z,995.43228
2022-09-30T04:12:01.000Z,995.43228
2022-09-30T04:12:28.000Z,995.43228
2022-09-30T04:12:54.000Z,995.43228
2022-09-30T04:13:19.000Z,995.43228
2022-09-30T04:13:45.000Z,995.1275039999999
2022-09-30T04:14:04.000Z,995.1275039999999
2022-09-30T04:14:39.000Z,995.1275039999999
2022-09-30T04:15:09.000Z,995.533872
2022-09-30T04:15:45.000Z,995.533872
2022-09-30T04:16:14.000Z,995.229096
2022-09-30T04:16:45.000Z,995.229096
2022-09-30T04:17:20.000Z,995.533872
2022-09-30T04:17:49.000Z,995.43228
2022-09-30T04:18:25.000Z,995.43228
2022-09-30T04:18:46.000Z,995.330688
2022-09-30T04:19:09.000Z,995.330688
2022-09-30T04:19:45.000Z,995.330688
2022-09-30T04:20:14.000Z,995.533872
2022-09-30T04:20:44.000Z,995.533872
2022-09-30T04:21:19.000Z,995.533872
2022-09-30T04:21:49.000Z,995.6354640000001
2022-09-30T04:22:25.000Z,995.6354640000001
2022-09-30T04:22:46.000Z,995.533872
2022-09-30T04:23:09.000Z,995.533872
2022-09-30T04:23:44.000Z,995.533872
2022-09-30T04:24:14.000Z,995.533872
2022-09-30T04:24:44.000Z,995.533872
2022-09-30T04:25:20.000Z,995.7370559999999
2022-09-30T04:25:49.000Z,995.533872
2022-09-30T04:26:25.000Z,995.533872
2022-09-30T04:26:46.000Z,995.533872
2022-09-30T04:27:08.000Z,995.533872
2022-09-30T04:27:34.000Z,995.533872
2022-09-30T04:28:01.000Z,995.533872
2022-09-30T04:28:29.000Z,995.533872
2022-09-30T04:29:04.000Z,995.7370559999999
2022-09-30T04:29:36.000Z,995.7370559999999
2022-09-30T04:30:04.000Z,995.533872
2022-09-30T04:30:39.000Z,995.533872
2022-09-30T04:31:09.000Z,995.6354640000001
2022-09-30T04:31:44.000Z,995.6354640000001
2022-09-30T04:32:14.000Z,995.533872
2022-09-30T04:32:45.000Z,995.533872
2022-09-30T04:33:20.000Z,995.43228
2022-09-30T04:33:49.000Z,995.533872
2022-09-30T04:34:34.000Z,995.533872
2022-09-30T04:35:04.000Z,995.838648
2022-09-30T04:35:24.000Z,995.838648
2022-09-30T04:35:45.000Z,995.7370559999999
2022-09-30T04:36:14.000Z,995.7370559999999
2022-09-30T04:36:45.000Z,995.7370559999999
2022-09-30T04:37:20.000Z,995.7370559999999
2022-09-30T04:37:49.000Z,995.838648
2022-09-30T04:38:24.000Z,995.838648
2022-09-30T04:38:46.000Z,995.94024
2022-09-30T04:39:09.000Z,995.94024
2022-09-30T04:39:45.000Z,995.94024
2022-09-30T04:40:14.000Z,995.6354640000001
2022-09-30T04:40:44.000Z,995.6354640000001
2022-09-30T04:41:20.000Z,995.6354640000001
2022-09-30T04:41:59.000Z,995.838648
2022-09-30T04:42:24.000Z,995.838648
2022-09-30T04:42:49.000Z,995.7370559999999
2022-09-30T04:43:13.000Z,995.7370559999999
2022-09-30T04:43:40.000Z,995.7370559999999
2022-09-30T04:44:06.000Z,995.7370559999999
2022-09-30T04:44:31.000Z,995.7370559999999
2022-09-30T04:44:54.000Z,995.7370559999999
2022-09-30T04:45:19.000Z,995.7370559999999
2022-09-30T04:45:49.000Z,995.838648
2022-09-30T04:46:25.000Z,995.838648
2022-09-30T04:46:46.000Z,995.838648
2022-09-30T04:47:09.000Z,995.838648
2022-09-30T04:47:45.000Z,995.838648
2022-09-30T04:48:14.000Z,995.7370559999999
2022-09-30T04:48:44.000Z,995.7370559999999
2022-09-30T04:49:20.000Z,995.838648
2022-09-30T04:49:49.000Z,995.838648
2022-09-30T04:50:25.000Z,995.838648
2022-09-30T04:50:46.000Z,996.041832
2022-09-30T04:51:09.000Z,996.041832
2022-09-30T04:51:54.000Z,995.94024
2022-09-30T04:52:17.000Z,995.94024
2022-09-30T04:52:44.000Z,995.94024
2022-09-30T04:53:16.000Z,995.838648
2022-09-30T04:53:44.000Z,995.838648
2022-09-30T04:54:14.000Z,995.94024
2022-09-30T04:54:41.000Z,995.94024
2022-09-30T04:55:09.000Z,995.838648
2022-09-30T04:55:45.000Z,995.838648
2022-09-30T04:56:15.000Z,995.838648
2022-09-30T04:56:45.000Z,995.838648
2022-09-30T04:57:20.000Z,996.041832
2022-09-30T04:57:49.000Z,995.94024
2022-09-30T04:58:24.000Z,995.94024
2022-09-30T04:58:46.000Z,996.041832